sensor_id;sensor_type;location;lat;lon;timestamp;P1;durP1;ratioP1;P2;durP2;ratioP2
48403;SDS011;34202;52.536;6.042;2022-12-07T00:04:39;3.20;;;0.70;;
48403;SDS011;34202;52.536;6.042;2022-12-07T00:09:40;8.90;;;1.30;;
48403;SDS011;34202;52.536;6.042;2022-12-07T00:14:41;7.70;;;0.80;;
48403;SDS011;34202;52.536;6.042;2022-12-07T00:19:41;3.00;;;0.70;;
48403;SDS011;34202;52.536;6.042;2022-12-07T00:24:42;3.70;;;0.70;;
48403;SDS011;34202;52.536;6.042;2022-12-07T00:29:42;3.90;;;1.10;;
48403;SDS011;34202;52.536;6.042;2022-12-07T00:34:42;8.80;;;2.30;;
48403;SDS011;34202;52.536;6.042;2022-12-07T00:39:43;4.20;;;1.50;;
48403;SDS011;34202;52.536;6.042;2022-12-07T00:44:43;5.80;;;1.50;;
48403;SDS011;34202;52.536;6.042;2022-12-07T00:49:43;9.60;;;1.00;;
48403;SDS011;34202;52.536;6.042;2022-12-07T00:54:43;2.90;;;0.90;;
48403;SDS011;34202;52.536;6.042;2022-12-07T00:59:44;5.70;;;1.00;;
48403;SDS011;34202;52.536;6.042;2022-12-07T01:04:44;4.30;;;1.40;;
48403;SDS011;34202;52.536;6.042;2022-12-07T01:09:44;7.90;;;2.00;;
48403;SDS011;34202;52.536;6.042;2022-12-07T01:14:45;12.40;;;1.50;;
48403;SDS011;34202;52.536;6.042;2022-12-07T01:19:45;4.30;;;0.80;;
48403;SDS011;34202;52.536;6.042;2022-12-07T01:24:45;6.10;;;1.10;;
48403;SDS011;34202;52.536;6.042;2022-12-07T01:29:46;3.50;;;1.00;;
48403;SDS011;34202;52.536;6.042;2022-12-07T01:34:49;6.20;;;1.20;;
48403;SDS011;34202;52.536;6.042;2022-12-07T01:39:50;8.50;;;0.90;;
48403;SDS011;34202;52.536;6.042;2022-12-07T01:50:29;8.90;;;1.10;;
48403;SDS011;34202;52.536;6.042;2022-12-07T01:55:31;5.80;;;1.20;;
48403;SDS011;34202;52.536;6.042;2022-12-07T02:00:33;4.80;;;1.30;;
48403;SDS011;34202;52.536;6.042;2022-12-07T02:05:34;5.30;;;1.00;;
48403;SDS011;34202;52.536;6.042;2022-12-07T02:10:38;5.30;;;1.20;;
48403;SDS011;34202;52.536;6.042;2022-12-07T02:21:09;4.50;;;1.00;;
48403;SDS011;34202;52.536;6.042;2022-12-07T02:31:29;5.00;;;0.90;;
48403;SDS011;34202;52.536;6.042;2022-12-07T02:36:32;5.60;;;1.20;;
48403;SDS011;34202;52.536;6.042;2022-12-07T02:41:59;6.80;;;1.50;;
48403;SDS011;34202;52.536;6.042;2022-12-07T02:47:09;3.80;;;0.90;;
48403;SDS011;34202;52.536;6.042;2022-12-07T02:52:12;6.10;;;2.00;;
48403;SDS011;34202;52.536;6.042;2022-12-07T03:02:31;6.40;;;1.00;;
48403;SDS011;34202;52.536;6.042;2022-12-07T03:12:56;7.10;;;0.80;;
48403;SDS011;34202;52.536;6.042;2022-12-07T03:18:04;4.60;;;0.80;;
48403;SDS011;34202;52.536;6.042;2022-12-07T03:23:06;2.80;;;0.80;;
48403;SDS011;34202;52.536;6.042;2022-12-07T03:28:09;9.10;;;2.20;;
48403;SDS011;34202;52.536;6.042;2022-12-07T03:33:15;5.90;;;1.00;;
48403;SDS011;34202;52.536;6.042;2022-12-07T03:38:23;8.50;;;2.00;;
48403;SDS011;34202;52.536;6.042;2022-12-07T03:43:29;8.20;;;1.10;;
48403;SDS011;34202;52.536;6.042;2022-12-07T03:53:37;5.60;;;1.30;;
48403;SDS011;34202;52.536;6.042;2022-12-07T03:58:42;2.10;;;0.90;;
48403;SDS011;34202;52.536;6.042;2022-12-07T04:03:43;8.20;;;1.20;;
48403;SDS011;34202;52.536;6.042;2022-12-07T04:08:43;4.20;;;1.10;;
48403;SDS011;34202;52.536;6.042;2022-12-07T04:13:44;8.40;;;1.20;;
48403;SDS011;34202;52.536;6.042;2022-12-07T04:19:02;3.10;;;1.00;;
48403;SDS011;34202;52.536;6.042;2022-12-07T04:24:03;6.60;;;1.50;;
48403;SDS011;34202;52.536;6.042;2022-12-07T04:29:04;4.00;;;1.00;;
48403;SDS011;34202;52.536;6.042;2022-12-07T04:34:04;3.90;;;1.00;;
48403;SDS011;34202;52.536;6.042;2022-12-07T04:39:05;6.00;;;2.00;;
48403;SDS011;34202;52.536;6.042;2022-12-07T04:44:13;6.20;;;1.20;;
48403;SDS011;34202;52.536;6.042;2022-12-07T04:49:15;3.30;;;1.10;;
48403;SDS011;34202;52.536;6.042;2022-12-07T04:54:16;6.00;;;1.00;;
48403;SDS011;34202;52.536;6.042;2022-12-07T04:59:17;4.40;;;0.70;;
48403;SDS011;34202;52.536;6.042;2022-12-07T05:04:18;5.30;;;1.00;;
48403;SDS011;34202;52.536;6.042;2022-12-07T05:09:19;5.90;;;2.00;;
48403;SDS011;34202;52.536;6.042;2022-12-07T05:14:19;6.40;;;0.80;;
48403;SDS011;34202;52.536;6.042;2022-12-07T05:19:20;6.40;;;1.20;;
48403;SDS011;34202;52.536;6.042;2022-12-07T05:24:21;10.30;;;1.20;;
48403;SDS011;34202;52.536;6.042;2022-12-07T05:29:21;9.40;;;1.50;;
48403;SDS011;34202;52.536;6.042;2022-12-07T05:34:21;10.50;;;1.20;;
48403;SDS011;34202;52.536;6.042;2022-12-07T05:39:22;7.10;;;1.20;;
48403;SDS011;34202;52.536;6.042;2022-12-07T05:44:22;6.40;;;1.30;;
48403;SDS011;34202;52.536;6.042;2022-12-07T05:49:22;9.10;;;2.10;;
48403;SDS011;34202;52.536;6.042;2022-12-07T05:54:23;9.20;;;2.00;;
48403;SDS011;34202;52.536;6.042;2022-12-07T05:59:24;8.20;;;1.00;;
48403;SDS011;34202;52.536;6.042;2022-12-07T06:04:25;4.30;;;1.20;;
48403;SDS011;34202;52.536;6.042;2022-12-07T06:09:28;6.90;;;0.80;;
48403;SDS011;34202;52.536;6.042;2022-12-07T06:14:29;4.00;;;1.00;;
48403;SDS011;34202;52.536;6.042;2022-12-07T06:19:29;5.00;;;0.90;;
48403;SDS011;34202;52.536;6.042;2022-12-07T06:24:30;5.00;;;1.70;;
48403;SDS011;34202;52.536;6.042;2022-12-07T06:29:31;9.10;;;2.00;;
48403;SDS011;34202;52.536;6.042;2022-12-07T06:34:32;5.90;;;0.80;;
48403;SDS011;34202;52.536;6.042;2022-12-07T06:39:32;1.20;;;0.60;;
48403;SDS011;34202;52.536;6.042;2022-12-07T06:44:32;6.40;;;1.50;;
48403;SDS011;34202;52.536;6.042;2022-12-07T06:49:33;3.80;;;1.50;;
48403;SDS011;34202;52.536;6.042;2022-12-07T06:54:33;2.80;;;1.50;;
48403;SDS011;34202;52.536;6.042;2022-12-07T06:59:33;3.10;;;0.80;;
48403;SDS011;34202;52.536;6.042;2022-12-07T07:04:34;3.80;;;1.00;;
48403;SDS011;34202;52.536;6.042;2022-12-07T07:09:34;2.70;;;1.40;;
48403;SDS011;34202;52.536;6.042;2022-12-07T07:14:34;2.00;;;0.70;;
48403;SDS011;34202;52.536;6.042;2022-12-07T07:19:35;5.70;;;1.20;;
48403;SDS011;34202;52.536;6.042;2022-12-07T07:24:37;2.80;;;0.70;;
48403;SDS011;34202;52.536;6.042;2022-12-07T07:29:37;7.50;;;1.30;;
48403;SDS011;34202;52.536;6.042;2022-12-07T07:34:37;5.30;;;1.10;;
48403;SDS011;34202;52.536;6.042;2022-12-07T07:39:38;7.50;;;1.60;;
48403;SDS011;34202;52.536;6.042;2022-12-07T07:44:38;7.70;;;1.30;;
48403;SDS011;34202;52.536;6.042;2022-12-07T07:49:38;11.10;;;1.20;;
48403;SDS011;34202;52.536;6.042;2022-12-07T07:54:39;5.10;;;1.20;;
48403;SDS011;34202;52.536;6.042;2022-12-07T07:59:39;5.20;;;0.90;;
48403;SDS011;34202;52.536;6.042;2022-12-07T08:04:39;2.00;;;0.70;;
48403;SDS011;34202;52.536;6.042;2022-12-07T08:09:40;3.20;;;1.30;;
48403;SDS011;34202;52.536;6.042;2022-12-07T08:14:41;3.70;;;0.90;;
48403;SDS011;34202;52.536;6.042;2022-12-07T08:19:41;6.40;;;1.60;;
48403;SDS011;34202;52.536;6.042;2022-12-07T08:24:42;2.40;;;0.80;;
48403;SDS011;34202;52.536;6.042;2022-12-07T08:29:42;3.50;;;1.00;;
48403;SDS011;34202;52.536;6.042;2022-12-07T08:34:43;7.60;;;1.30;;
48403;SDS011;34202;52.536;6.042;2022-12-07T08:39:43;3.20;;;1.00;;
48403;SDS011;34202;52.536;6.042;2022-12-07T08:44:43;4.70;;;1.70;;
48403;SDS011;34202;52.536;6.042;2022-12-07T08:49:46;5.20;;;1.30;;
48403;SDS011;34202;52.536;6.042;2022-12-07T08:54:50;2.40;;;0.90;;
48403;SDS011;34202;52.536;6.042;2022-12-07T08:59:50;6.50;;;1.60;;
48403;SDS011;34202;52.536;6.042;2022-12-07T09:04:50;4.90;;;1.10;;
48403;SDS011;34202;52.536;6.042;2022-12-07T09:09:51;4.60;;;1.10;;
48403;SDS011;34202;52.536;6.042;2022-12-07T09:14:51;3.10;;;1.00;;
48403;SDS011;34202;52.536;6.042;2022-12-07T09:19:51;5.10;;;1.20;;
48403;SDS011;34202;52.536;6.042;2022-12-07T09:24:52;7.80;;;1.10;;
48403;SDS011;34202;52.536;6.042;2022-12-07T09:29:52;5.10;;;1.00;;
48403;SDS011;34202;52.536;6.042;2022-12-07T09:34:53;4.70;;;0.80;;
48403;SDS011;34202;52.536;6.042;2022-12-07T09:39:53;5.90;;;0.90;;
48403;SDS011;34202;52.536;6.042;2022-12-07T09:44:54;4.50;;;0.80;;
48403;SDS011;34202;52.536;6.042;2022-12-07T09:49:55;5.40;;;1.20;;
48403;SDS011;34202;52.536;6.042;2022-12-07T09:55:08;4.30;;;0.90;;
48403;SDS011;34202;52.536;6.042;2022-12-07T10:00:12;6.30;;;0.80;;
48403;SDS011;34202;52.536;6.042;2022-12-07T10:05:27;6.90;;;1.50;;
48403;SDS011;34202;52.536;6.042;2022-12-07T10:10:32;1.90;;;0.50;;
48403;SDS011;34202;52.536;6.042;2022-12-07T10:15:53;7.40;;;1.10;;
48403;SDS011;34202;52.536;6.042;2022-12-07T10:26:25;5.20;;;0.90;;
48403;SDS011;34202;52.536;6.042;2022-12-07T10:31:33;5.60;;;1.10;;
48403;SDS011;34202;52.536;6.042;2022-12-07T11:34:31;8.00;;;1.40;;
48403;SDS011;34202;52.536;6.042;2022-12-07T11:39:35;6.20;;;1.50;;
48403;SDS011;34202;52.536;6.042;2022-12-07T11:49:58;8.50;;;2.20;;
48403;SDS011;34202;52.536;6.042;2022-12-07T11:55:17;3.80;;;0.90;;
48403;SDS011;34202;52.536;6.042;2022-12-07T12:00:24;4.50;;;0.90;;
48403;SDS011;34202;52.536;6.042;2022-12-07T12:05:24;5.00;;;1.50;;
48403;SDS011;34202;52.536;6.042;2022-12-07T12:21:37;13.10;;;2.70;;
48403;SDS011;34202;52.536;6.042;2022-12-07T12:26:38;3.40;;;1.10;;
48403;SDS011;34202;52.536;6.042;2022-12-07T12:31:39;5.30;;;1.00;;
48403;SDS011;34202;52.536;6.042;2022-12-07T12:57:22;4.50;;;1.30;;
48403;SDS011;34202;52.536;6.042;2022-12-07T13:02:37;5.10;;;0.90;;
48403;SDS011;34202;52.536;6.042;2022-12-07T13:23:31;7.30;;;1.20;;
48403;SDS011;34202;52.536;6.042;2022-12-07T13:28:37;10.50;;;2.70;;
48403;SDS011;34202;52.536;6.042;2022-12-07T13:33:42;11.80;;;3.30;;
48403;SDS011;34202;52.536;6.042;2022-12-07T13:38:49;6.40;;;1.00;;
48403;SDS011;34202;52.536;6.042;2022-12-07T13:44:01;5.70;;;0.90;;
48403;SDS011;34202;52.536;6.042;2022-12-07T14:00:13;2.40;;;0.70;;
48403;SDS011;34202;52.536;6.042;2022-12-07T14:05:23;4.80;;;0.90;;
48403;SDS011;34202;52.536;6.042;2022-12-07T14:10:33;3.90;;;0.80;;
48403;SDS011;34202;52.536;6.042;2022-12-07T14:15:35;3.40;;;0.60;;
48403;SDS011;34202;52.536;6.042;2022-12-07T14:20:37;3.20;;;1.10;;
48403;SDS011;34202;52.536;6.042;2022-12-07T14:30:45;9.50;;;1.00;;
48403;SDS011;34202;52.536;6.042;2022-12-07T14:35:46;3.40;;;0.70;;
48403;SDS011;34202;52.536;6.042;2022-12-07T14:40:46;8.30;;;1.10;;
48403;SDS011;34202;52.536;6.042;2022-12-07T14:45:46;2.50;;;0.70;;
48403;SDS011;34202;52.536;6.042;2022-12-07T14:50:51;9.70;;;2.30;;
48403;SDS011;34202;52.536;6.042;2022-12-07T14:55:53;3.80;;;0.90;;
48403;SDS011;34202;52.536;6.042;2022-12-07T15:00:53;4.00;;;1.10;;
48403;SDS011;34202;52.536;6.042;2022-12-07T15:05:53;8.50;;;1.70;;
48403;SDS011;34202;52.536;6.042;2022-12-07T15:10:54;4.10;;;1.50;;
48403;SDS011;34202;52.536;6.042;2022-12-07T15:15:54;4.40;;;0.80;;
48403;SDS011;34202;52.536;6.042;2022-12-07T15:20:55;1.50;;;0.60;;
48403;SDS011;34202;52.536;6.042;2022-12-07T15:25:55;5.20;;;0.90;;
48403;SDS011;34202;52.536;6.042;2022-12-07T15:30:56;6.20;;;0.80;;
48403;SDS011;34202;52.536;6.042;2022-12-07T15:35:56;2.60;;;0.90;;
48403;SDS011;34202;52.536;6.042;2022-12-07T15:40:59;7.00;;;0.90;;
48403;SDS011;34202;52.536;6.042;2022-12-07T15:45:59;7.40;;;1.00;;
48403;SDS011;34202;52.536;6.042;2022-12-07T15:51:06;3.30;;;0.90;;
48403;SDS011;34202;52.536;6.042;2022-12-07T15:56:08;4.00;;;1.20;;
48403;SDS011;34202;52.536;6.042;2022-12-07T16:01:12;4.70;;;1.20;;
48403;SDS011;34202;52.536;6.042;2022-12-07T16:06:17;3.50;;;0.90;;
48403;SDS011;34202;52.536;6.042;2022-12-07T16:11:18;2.50;;;1.00;;
48403;SDS011;34202;52.536;6.042;2022-12-07T16:16:19;6.50;;;1.40;;
48403;SDS011;34202;52.536;6.042;2022-12-07T16:21:21;4.60;;;1.10;;
48403;SDS011;34202;52.536;6.042;2022-12-07T16:26:22;4.30;;;1.40;;
48403;SDS011;34202;52.536;6.042;2022-12-07T16:31:23;5.00;;;1.50;;
48403;SDS011;34202;52.536;6.042;2022-12-07T16:36:24;7.60;;;1.80;;
48403;SDS011;34202;52.536;6.042;2022-12-07T16:41:27;5.70;;;1.60;;
48403;SDS011;34202;52.536;6.042;2022-12-07T16:46:27;5.40;;;1.20;;
48403;SDS011;34202;52.536;6.042;2022-12-07T16:51:28;3.80;;;1.40;;
48403;SDS011;34202;52.536;6.042;2022-12-07T16:56:29;3.10;;;0.70;;
48403;SDS011;34202;52.536;6.042;2022-12-07T17:01:29;3.50;;;1.20;;
48403;SDS011;34202;52.536;6.042;2022-12-07T17:06:30;2.80;;;0.80;;
48403;SDS011;34202;52.536;6.042;2022-12-07T17:11:31;2.80;;;0.90;;
48403;SDS011;34202;52.536;6.042;2022-12-07T17:16:31;5.10;;;1.20;;
48403;SDS011;34202;52.536;6.042;2022-12-07T17:21:32;6.40;;;1.60;;
48403;SDS011;34202;52.536;6.042;2022-12-07T17:26:32;3.70;;;0.90;;
48403;SDS011;34202;52.536;6.042;2022-12-07T17:31:34;3.20;;;1.40;;
48403;SDS011;34202;52.536;6.042;2022-12-07T17:36:34;2.80;;;1.20;;
48403;SDS011;34202;52.536;6.042;2022-12-07T17:41:35;2.10;;;1.10;;
48403;SDS011;34202;52.536;6.042;2022-12-07T17:46:55;7.00;;;1.90;;
48403;SDS011;34202;52.536;6.042;2022-12-07T17:51:58;3.50;;;1.20;;
48403;SDS011;34202;52.536;6.042;2022-12-07T17:57:17;6.20;;;1.50;;
48403;SDS011;34202;52.536;6.042;2022-12-07T18:02:18;3.50;;;1.90;;
48403;SDS011;34202;52.536;6.042;2022-12-07T18:07:18;3.30;;;0.90;;
48403;SDS011;34202;52.536;6.042;2022-12-07T18:12:18;5.20;;;1.50;;
48403;SDS011;34202;52.536;6.042;2022-12-07T18:17:18;1.50;;;1.20;;
48403;SDS011;34202;52.536;6.042;2022-12-07T18:22:19;3.40;;;1.50;;
48403;SDS011;34202;52.536;6.042;2022-12-07T18:27:19;1.50;;;1.00;;
48403;SDS011;34202;52.536;6.042;2022-12-07T18:32:20;2.80;;;1.40;;
48403;SDS011;34202;52.536;6.042;2022-12-07T18:37:20;3.00;;;1.40;;
48403;SDS011;34202;52.536;6.042;2022-12-07T18:42:22;8.40;;;1.60;;
48403;SDS011;34202;52.536;6.042;2022-12-07T18:47:23;4.70;;;1.10;;
48403;SDS011;34202;52.536;6.042;2022-12-07T18:52:23;2.70;;;1.10;;
48403;SDS011;34202;52.536;6.042;2022-12-07T18:57:23;6.80;;;1.50;;
48403;SDS011;34202;52.536;6.042;2022-12-07T19:02:24;5.10;;;2.40;;
48403;SDS011;34202;52.536;6.042;2022-12-07T19:07:24;7.10;;;1.90;;
48403;SDS011;34202;52.536;6.042;2022-12-07T19:12:24;4.90;;;1.40;;
48403;SDS011;34202;52.536;6.042;2022-12-07T19:17:25;7.50;;;2.30;;
48403;SDS011;34202;52.536;6.042;2022-12-07T19:22:25;3.10;;;1.60;;
48403;SDS011;34202;52.536;6.042;2022-12-07T19:27:25;7.40;;;2.50;;
48403;SDS011;34202;52.536;6.042;2022-12-07T19:32:26;2.90;;;1.40;;
48403;SDS011;34202;52.536;6.042;2022-12-07T19:37:27;2.70;;;1.20;;
48403;SDS011;34202;52.536;6.042;2022-12-07T19:42:27;4.10;;;1.80;;
48403;SDS011;34202;52.536;6.042;2022-12-07T19:47:29;9.30;;;2.00;;
48403;SDS011;34202;52.536;6.042;2022-12-07T19:52:29;2.80;;;1.20;;
48403;SDS011;34202;52.536;6.042;2022-12-07T19:57:29;4.10;;;1.60;;
48403;SDS011;34202;52.536;6.042;2022-12-07T20:02:29;3.90;;;1.00;;
48403;SDS011;34202;52.536;6.042;2022-12-07T20:07:30;4.10;;;1.20;;
48403;SDS011;34202;52.536;6.042;2022-12-07T20:12:32;5.70;;;1.40;;
48403;SDS011;34202;52.536;6.042;2022-12-07T20:17:51;7.20;;;1.80;;
48403;SDS011;34202;52.536;6.042;2022-12-07T20:22:51;4.50;;;1.50;;
48403;SDS011;34202;52.536;6.042;2022-12-07T20:27:51;2.20;;;1.20;;
48403;SDS011;34202;52.536;6.042;2022-12-07T20:32:52;5.30;;;1.50;;
48403;SDS011;34202;52.536;6.042;2022-12-07T20:37:52;3.60;;;1.40;;
48403;SDS011;34202;52.536;6.042;2022-12-07T20:42:52;5.40;;;1.30;;
48403;SDS011;34202;52.536;6.042;2022-12-07T20:47:53;3.90;;;1.20;;
48403;SDS011;34202;52.536;6.042;2022-12-07T20:52:53;2.20;;;1.20;;
48403;SDS011;34202;52.536;6.042;2022-12-07T20:57:54;3.30;;;1.10;;
48403;SDS011;34202;52.536;6.042;2022-12-07T21:02:54;4.80;;;2.00;;
48403;SDS011;34202;52.536;6.042;2022-12-07T21:07:56;4.80;;;1.00;;
48403;SDS011;34202;52.536;6.042;2022-12-07T21:12:56;2.70;;;0.80;;
48403;SDS011;34202;52.536;6.042;2022-12-07T21:17:56;8.60;;;1.80;;
48403;SDS011;34202;52.536;6.042;2022-12-07T21:22:57;4.30;;;0.80;;
48403;SDS011;34202;52.536;6.042;2022-12-07T21:27:58;3.60;;;1.00;;
48403;SDS011;34202;52.536;6.042;2022-12-07T21:32:58;4.00;;;0.50;;
48403;SDS011;34202;52.536;6.042;2022-12-07T21:37:58;3.40;;;1.10;;
48403;SDS011;34202;52.536;6.042;2022-12-07T21:42:59;5.90;;;0.80;;
48403;SDS011;34202;52.536;6.042;2022-12-07T21:47:59;1.70;;;0.60;;
48403;SDS011;34202;52.536;6.042;2022-12-07T21:52:59;4.00;;;0.90;;
48403;SDS011;34202;52.536;6.042;2022-12-07T21:58:00;7.40;;;0.90;;
48403;SDS011;34202;52.536;6.042;2022-12-07T22:03:00;3.20;;;0.70;;
48403;SDS011;34202;52.536;6.042;2022-12-07T22:08:00;1.60;;;0.60;;
48403;SDS011;34202;52.536;6.042;2022-12-07T22:13:02;8.90;;;1.40;;
48403;SDS011;34202;52.536;6.042;2022-12-07T22:18:02;3.60;;;0.50;;
48403;SDS011;34202;52.536;6.042;2022-12-07T22:23:03;1.80;;;0.70;;
48403;SDS011;34202;52.536;6.042;2022-12-07T22:28:03;2.20;;;1.00;;
48403;SDS011;34202;52.536;6.042;2022-12-07T22:33:03;3.60;;;0.80;;
48403;SDS011;34202;52.536;6.042;2022-12-07T22:38:04;1.90;;;0.70;;
48403;SDS011;34202;52.536;6.042;2022-12-07T22:43:04;3.40;;;1.00;;
48403;SDS011;34202;52.536;6.042;2022-12-07T22:48:05;3.30;;;1.80;;
48403;SDS011;34202;52.536;6.042;2022-12-07T22:53:05;1.00;;;1.00;;
48403;SDS011;34202;52.536;6.042;2022-12-07T22:58:05;2.80;;;1.80;;
48403;SDS011;34202;52.536;6.042;2022-12-07T23:03:06;4.10;;;1.70;;
48403;SDS011;34202;52.536;6.042;2022-12-07T23:08:06;5.50;;;1.80;;
48403;SDS011;34202;52.536;6.042;2022-12-07T23:13:08;5.10;;;2.00;;
48403;SDS011;34202;52.536;6.042;2022-12-07T23:18:29;4.80;;;3.30;;
48403;SDS011;34202;52.536;6.042;2022-12-07T23:23:29;4.40;;;2.60;;
48403;SDS011;34202;52.536;6.042;2022-12-07T23:28:29;5.50;;;3.40;;
48403;SDS011;34202;52.536;6.042;2022-12-07T23:33:30;11.70;;;4.80;;
48403;SDS011;34202;52.536;6.042;2022-12-07T23:38:30;7.90;;;4.70;;
48403;SDS011;34202;52.536;6.042;2022-12-07T23:43:31;7.90;;;4.40;;
48403;SDS011;34202;52.536;6.042;2022-12-07T23:48:31;8.00;;;4.90;;
48403;SDS011;34202;52.536;6.042;2022-12-07T23:53:32;10.40;;;4.90;;
48403;SDS011;34202;52.536;6.042;2022-12-07T23:58:36;9.20;;;4.80;;
